Date,TemperatureHighF,TemperatureAvgF,TemperatureLowF,DewpointHighF,DewpointAvgF,DewpointLowF,HumidityHigh,HumidityAvg,HumidityLow,PressureMaxIn,PressureMinIn,WindSpeedMaxMPH,WindSpeedAvgMPH,GustSpeedMaxMPH,PrecipitationSumIn
2013-5-1,55.6,47.1,34.7,47.0,38.5,31.0,97,75,39,30.46,30.37,14,5,19,0.00
2013-5-2,57.1,47.8,38.0,49.0,40.4,33.0,97,78,42,30.51,30.41,9,2,16,0.00
2013-5-3,59.8,47.1,38.3,47.0,41.9,37.0,94,82,58,30.55,30.38,13,4,16,0.00
2013-5-4,53.8,44.9,37.2,46.0,40.1,36.0,98,84,63,30.39,30.32,13,4,16,0.00
2013-5-5,51.4,44.8,34.2,44.0,40.1,34.0,97,84,66,30.34,30.25,18,6,21,0.00
2013-5-6,52.8,45.8,36.6,49.0,43.5,36.0,98,92,78,30.28,30.18,15,6,18,0.00
2013-5-7,56.6,49.0,44.1,52.0,47.6,44.0,98,95,80,30.18,30.10,16,7,18,0.01
2013-5-8,64.2,53.9,43.4,60.0,52.5,43.0,99,95,82,30.25,30.13,12,4,16,0.00
2013-5-9,54.9,52.8,50.5,54.0,52.1,50.0,99,97,95,30.12,29.90,6,2,10,0.30
2013-5-10,55.8,52.1,49.7,55.0,51.5,49.0,99,97,93,29.96,29.88,12,3,14,0.00
2013-5-11,55.7,52.8,49.3,55.0,52.0,49.0,98,97,94,29.94,29.69,17,8,24,0.27
2013-5-12,57.9,53.5,49.9,57.0,52.7,46.0,99,97,84,29.70,29.52,11,4,16,0.16
2013-5-13,53.9,48.8,43.5,45.0,39.7,33.0,93,72,48,29.98,29.70,26,7,33,0.00
2013-5-14,57.8,49.3,43.2,42.0,36.1,32.0,84,62,39,30.00,29.93,7,2,12,0.00
2013-5-15,58.8,48.8,37.7,49.0,40.7,31.0,95,76,35,30.00,29.66,18,7,23,0.29
2013-5-16,66.7,56.2,49.4,55.0,49.9,44.0,98,81,51,29.76,29.55,15,5,22,0.00
2013-5-17,62.0,55.5,44.3,47.0,42.1,37.0,90,63,40,30.18,29.76,11,3,15,0.00
2013-5-18,57.8,48.8,39.1,46.0,42.8,38.0,96,81,55,30.34,30.19,12,4,15,0.00
2013-5-19,56.5,49.8,44.0,49.0,46.2,42.0,97,87,73,30.37,30.25,11,3,14,0.06
2013-5-20,63.6,54.8,49.9,60.0,53.5,49.0,98,95,88,30.23,29.91,14,3,16,0.82
2013-5-21,53.1,49.3,48.0,52.0,48.5,47.0,98,97,95,30.06,29.94,9,2,14,0.50
2013-5-22,52.7,49.8,48.0,51.0,48.9,47.0,98,96,92,30.10,29.91,7,2,11,0.64
2013-5-23,57.0,52.9,48.1,57.0,52.4,47.0,99,98,95,29.95,29.82,16,5,21,0.01
2013-5-24,58.8,55.5,51.1,59.0,55.2,50.0,99,98,94,29.82,29.64,20,8,25,1.57
2013-5-25,52.2,50.1,48.4,51.0,49.2,48.0,98,96,92,29.81,29.65,14,6,24,0.24
2013-5-26,54.9,49.5,46.3,50.0,46.8,42.0,98,91,71,29.93,29.58,6,2,15,0.35
2013-5-27,66.6,55.0,42.9,44.0,38.8,33.0,88,59,30,30.14,29.93,8,2,13,0.00
2013-5-28,62.6,51.7,38.4,49.0,43.8,37.0,96,76,51,30.22,30.15,16,5,20,0.00
2013-5-29,54.7,51.4,46.3,54.0,50.8,45.0,99,97,93,30.21,29.99,7,2,16,0.13
2013-5-30,71.4,59.8,51.3,67.0,57.0,51.0,99,91,73,30.01,29.95,10,2,13,0.01
2013-5-31,72.5,64.7,53.9,64.0,59.6,53.0,98,84,70,30.03,29.86,12,3,15,0.00